Time;durP1;ratioP1;P1;durP2;ratioP2;P2;SDS_P1;SDS_P2;PMS_P1;PMS_P2;Temp;Humidity;BMP_temperature;BMP_pressure;BME280_temperature;BME280_humidity;BME280_pressure;Samples;Min_cycle;Max_cycle;Signal;HPM_P1;HPM_P2
2021/12/31 00:02:23;;;;;;;3.05;2.10;;;;;;;12.35;88.17;101716.59;4917519;29;20039;-91
2021/12/31 00:04:49;;;;;;;3.77;2.07;;;;;;;12.33;88.37;101721.78;4917809;29;20028;-92
2021/12/31 00:10:01;;;;;;;3.28;2.40;;;;;;;12.33;88.14;101718.31;4917644;29;20472;-93
2021/12/31 00:12:45;;;;;;;4.07;2.13;;;;;;;12.39;88.14;101722.63;4917608;29;20092;-93
2021/12/31 00:15:28;;;;;;;4.20;2.10;;;;;;;12.38;87.86;101723.50;4917076;29;20307;-92
2021/12/31 00:17:53;;;;;;;7.50;2.47;;;;;;;12.44;87.30;101721.69;4917354;29;20047;-93
2021/12/31 00:20:23;;;;;;;4.87;2.40;;;;;;;12.41;87.43;101723.47;4976537;28;20383;-93
2021/12/31 00:23:09;;;;;;;2.80;2.30;;;;;;;12.40;87.23;101730.41;4996214;28;20065;-92
2021/12/31 00:25:53;;;;;;;3.67;2.20;;;;;;;12.41;87.70;101729.53;4996315;28;20088;-93
2021/12/31 00:28:18;;;;;;;4.78;2.28;;;;;;;12.38;87.33;101724.38;4996180;28;20113;-93
2021/12/31 00:30:45;;;;;;;3.87;2.40;;;;;;;12.38;87.36;101728.69;4995858;28;20118;-91
2021/12/31 00:33:29;;;;;;;4.10;2.20;;;;;;;12.42;87.30;101730.41;4996174;28;20027;-93
2021/12/31 00:35:54;;;;;;;4.00;2.10;;;;;;;12.38;87.38;101732.19;4994500;28;20026;-92
2021/12/31 00:38:19;;;;;;;2.37;1.90;;;;;;;12.39;87.32;101741.69;4996650;28;20033;-93
2021/12/31 00:41:15;;;;;;;3.60;2.17;;;;;;;12.41;87.59;101736.50;4995430;28;20471;-93
2021/12/31 00:47:01;;;;;;;2.67;1.83;;;;;;;12.37;87.40;101733.06;4996006;28;20041;-93
2021/12/31 00:49:30;;;;;;;3.17;2.00;;;;;;;12.33;87.33;101728.75;4995971;28;20080;-93
2021/12/31 00:51:55;;;;;;;2.70;1.92;;;;;;;12.29;87.35;101722.69;4995416;28;20153;-93
2021/12/31 00:54:26;;;;;;;2.83;2.00;;;;;;;12.29;87.24;101727.91;4996062;28;20062;-93
2021/12/31 00:56:51;;;;;;;3.70;2.15;;;;;;;12.29;86.96;101721.81;4995368;28;20027;-94
2021/12/31 00:59:33;;;;;;;2.67;2.00;;;;;;;12.30;86.99;101732.25;4995890;28;20022;-94
2021/12/31 01:02:16;;;;;;;2.75;2.00;;;;;;;12.28;86.84;101726.19;4993814;28;20034;-93
2021/12/31 01:05:00;;;;;;;3.95;2.08;;;;;;;12.31;86.86;101730.50;4995890;28;20370;-93
2021/12/31 01:07:27;;;;;;;4.47;2.30;;;;;;;12.36;86.70;101739.13;4995670;28;20030;-93
2021/12/31 01:09:54;;;;;;;3.15;2.20;;;;;;;12.35;87.05;101737.41;4995672;28;20451;-93
2021/12/31 01:12:25;;;;;;;2.00;1.80;;;;;;;12.30;86.90;101728.75;4995478;28;20022;-93
2021/12/31 01:15:17;;;;;;;2.58;1.90;;;;;;;12.35;86.62;101737.41;4995124;28;20031;-92
2021/12/31 01:18:16;;;;;;;2.85;1.95;;;;;;;12.33;86.64;101731.34;4994903;28;20026;-93
2021/12/31 01:20:39;;;;;;;1.73;1.63;;;;;;;12.29;86.60;101730.50;4993787;28;20034;-93
2021/12/31 01:23:04;;;;;;;;;;;;;;;12.36;86.71;101741.75;4995639;28;20030;-93
2021/12/31 01:25:30;;;;;;;2.10;1.63;;;;;;;12.30;86.60;101727.03;4995098;28;19913;-93
2021/12/31 01:28:19;;;;;;;1.87;1.53;;;;;;;12.32;86.55;101725.28;4994333;28;20085;-93
2021/12/31 01:30:56;;;;;;;4.47;2.03;;;;;;;12.28;86.40;101727.91;4996568;28;20106;-93
2021/12/31 01:33:22;;;;;;;2.45;1.80;;;;;;;12.30;86.17;101723.56;4996139;28;20375;-93
2021/12/31 01:36:04;;;;;;;1.80;1.70;;;;;;;12.32;86.61;101729.63;5008943;28;20026;-92
2021/12/31 01:38:30;;;;;;;2.22;1.70;;;;;;;12.28;86.35;101734.00;5005267;28;20034;-93
2021/12/31 01:40:55;;;;;;;2.60;1.97;;;;;;;12.34;86.73;101733.06;4994703;28;20390;-93
2021/12/31 01:43:39;;;;;;;2.57;1.97;;;;;;;12.31;86.69;101736.56;4994340;28;20038;-93
2021/12/31 01:46:25;;;;;;;3.08;1.90;;;;;;;12.26;86.40;101734.88;4995001;28;20475;-94
2021/12/31 01:51:57;;;;;;;2.85;1.70;;;;;;;12.30;86.20;101744.38;4995172;28;20104;-93
2021/12/31 01:57:40;;;;;;;2.65;1.80;;;;;;;12.25;86.19;101743.56;4916067;29;20043;-94
2021/12/31 02:00:06;;;;;;;3.15;1.90;;;;;;;12.29;86.26;101750.44;4915909;29;20038;-94
2021/12/31 02:02:32;;;;;;;3.42;2.05;;;;;;;12.29;85.94;101750.44;4916167;29;20036;-93
2021/12/31 02:08:51;;;;;;;2.92;1.90;;;;;;;12.35;85.72;101756.47;4929504;29;20083;-94
2021/12/31 02:11:29;;;;;;;3.03;1.90;;;;;;;12.32;86.05;101747.84;4954421;28;20074;-93
2021/12/31 02:14:14;;;;;;;4.47;2.15;;;;;;;12.31;85.49;101754.78;4994032;28;20034;-93
2021/12/31 02:16:40;;;;;;;3.92;2.05;;;;;;;12.34;85.28;101759.09;4975387;28;20038;-93
2021/12/31 02:19:27;;;;;;;4.87;1.93;;;;;;;12.37;85.26;101759.09;4975626;28;20023;-93
2021/12/31 02:22:08;;;;;;;2.40;1.85;;;;;;;12.34;85.20;101746.09;4975113;28;20096;-94
2021/12/31 02:24:36;;;;;;;3.30;2.10;;;;;;;12.32;84.92;101750.44;4983573;28;20112;-92
2021/12/31 02:27:19;;;;;;;3.47;2.10;;;;;;;12.32;85.41;101746.13;4994597;28;20471;-93
2021/12/31 02:29:44;;;;;;;1.67;1.58;;;;;;;12.32;85.54;101745.22;4994734;28;20030;-93
2021/12/31 02:32:10;;;;;;;1.73;1.63;;;;;;;12.32;85.22;101738.31;4995122;28;20018;-93
2021/12/31 02:34:35;;;;;;;2.53;1.80;;;;;;;12.30;84.94;101732.25;4993833;28;20030;-93
2021/12/31 02:37:24;;;;;;;2.20;1.60;;;;;;;12.35;85.36;101737.41;4993769;28;20072;-92
2021/12/31 02:39:50;;;;;;;2.28;1.83;;;;;;;12.30;85.03;101728.75;4994502;28;20034;-93
2021/12/31 02:42:41;;;;;;;1.77;1.67;;;;;;;12.33;85.40;101741.75;4993655;28;20057;-93
2021/12/31 02:45:08;;;;;;;2.53;1.70;;;;;;;12.31;85.54;101731.38;4993997;28;20062;-92
2021/12/31 02:47:45;;;;;;;2.83;1.65;;;;;;;12.32;85.08;101737.41;4994582;28;20018;-93
2021/12/31 02:50:38;;;;;;;3.33;1.90;;;;;;;12.30;85.02;101736.56;4994319;28;20026;-93
2021/12/31 02:53:07;;;;;;;2.25;1.80;;;;;;;12.26;84.97;101716.66;4994647;28;20038;-93
2021/12/31 02:55:59;;;;;;;2.30;1.90;;;;;;;12.32;85.13;101730.50;5046787;23;20053;-93
2021/12/31 02:58:24;;;;;;;3.35;1.88;;;;;;;12.29;85.30;101722.69;4974850;28;20051;-93
2021/12/31 03:03:50;;;;;;;3.22;1.50;;;;;;;12.26;84.91;101727.06;5008259;23;20141;-93
2021/12/31 03:06:17;;;;;;;1.43;1.33;;;;;;;12.26;85.17;101729.69;4993828;28;20133;-93
2021/12/31 03:08:46;;;;;;;;;;;;;;;12.24;85.03;101734.03;4994642;28;20278;-93
2021/12/31 03:11:13;;;;;;;1.67;1.58;;;;;;;12.22;85.26;101738.38;4997900;28;20016;-93
2021/12/31 03:13:39;;;;;;;1.48;1.38;;;;;;;12.21;85.52;101732.31;4997388;28;20032;-93
2021/12/31 03:16:07;;;;;;;2.20;1.42;;;;;;;12.18;85.25;101727.13;4997752;28;20097;-93
2021/12/31 03:18:33;;;;;;;1.70;1.60;;;;;;;12.18;85.16;101720.16;4997794;28;20023;-94
2021/12/31 03:21:08;;;;;;;1.70;1.60;;;;;;;12.16;85.41;101716.72;4997548;28;20081;-94
2021/12/31 03:23:33;;;;;;;1.98;1.65;;;;;;;12.16;85.07;101726.28;4997220;28;20037;-92
2021/12/31 03:25:59;;;;;;;1.90;1.63;;;;;;;12.15;85.25;101727.16;4996777;28;20027;-92
2021/12/31 03:28:25;;;;;;;1.90;1.70;;;;;;;12.13;85.23;101719.38;4997591;28;20459;-94
2021/12/31 03:30:51;;;;;;;2.67;1.70;;;;;;;12.12;84.95;101721.97;4997101;28;20077;-94
2021/12/31 03:33:16;;;;;;;2.77;1.90;;;;;;;12.11;85.07;101715.03;4997415;28;20406;-93
2021/12/31 03:35:42;;;;;;;1.93;1.70;;;;;;;12.10;85.29;101714.16;4996963;28;20034;-93
2021/12/31 03:38:08;;;;;;;2.37;1.60;;;;;;;12.11;85.38;101712.41;4997309;28;20022;-93
2021/12/31 03:40:36;;;;;;;4.17;1.60;;;;;;;12.08;85.38;101713.31;4997594;28;20046;-93
2021/12/31 03:43:02;;;;;;;1.90;1.70;;;;;;;12.08;85.35;101712.47;4997008;28;20098;-93
2021/12/31 03:45:46;;;;;;;1.60;1.50;;;;;;;12.03;85.40;101697.75;4996947;28;20475;-93
2021/12/31 03:48:30;;;;;;;4.63;2.00;;;;;;;12.05;85.10;101696.00;4997654;28;20033;-93
2021/12/31 03:50:55;;;;;;;2.05;1.85;;;;;;;12.06;85.37;101709.84;4997168;28;20023;-94
2021/12/31 03:53:42;;;;;;;2.13;1.83;;;;;;;12.05;85.23;101708.13;4997157;28;20064;-93
2021/12/31 03:56:08;;;;;;;3.05;1.92;;;;;;;12.03;85.39;101697.75;5001871;28;20022;-93
2021/12/31 03:58:51;;;;;;;1.80;1.70;;;;;;;12.01;85.10;101709.91;4997906;28;20021;-93
2021/12/31 04:01:27;;;;;;;2.72;1.80;;;;;;;11.98;85.08;101703.84;4996593;28;20494;-93
2021/12/31 04:04:17;;;;;;;1.70;1.60;;;;;;;11.99;85.14;101703.84;4996032;28;20085;-93
2021/12/31 04:06:57;;;;;;;1.73;1.63;;;;;;;11.94;85.36;101703.00;4997429;28;20077;-94
2021/12/31 04:09:22;;;;;;;2.38;1.77;;;;;;;11.95;85.32;101701.22;5015056;28;20049;-92
2021/12/31 04:11:48;;;;;;;1.80;1.70;;;;;;;11.95;85.26;101702.13;5007853;28;20026;-93
2021/12/31 04:14:25;;;;;;;5.27;1.90;;;;;;;11.95;85.39;101699.50;4996510;28;20026;-93
2021/12/31 04:16:50;;;;;;;3.92;2.00;;;;;;;11.95;85.24;101709.03;4995907;28;20550;-93
2021/12/31 04:22:02;;;;;;;4.97;2.40;;;;;;;11.98;85.38;101711.66;5006611;23;20543;-93
2021/12/31 04:25:12;;;;;;;3.47;2.10;;;;;;;11.97;85.24;101713.38;4996626;28;20320;-93
2021/12/31 04:27:13;;;;;;;3.07;2.00;;;;;;;11.97;85.55;101702.97;4983200;28;20395;-93
2021/12/31 04:29:39;;;;;;;2.37;1.97;;;;;;;11.95;85.30;101702.13;4996247;28;20289;-93
2021/12/31 04:32:05;;;;;;;3.08;2.03;;;;;;;11.98;85.32;101701.25;4996435;28;20080;-93
2021/12/31 04:34:31;;;;;;;4.55;2.10;;;;;;;11.98;85.42;101696.94;4995852;28;20035;-93
2021/12/31 04:36:57;;;;;;;2.40;2.20;;;;;;;11.98;85.37;101694.34;4996305;28;20105;-94
2021/12/31 04:39:22;;;;;;;3.83;2.20;;;;;;;11.99;85.04;101690.81;4996402;28;20297;-93
2021/12/31 04:41:48;;;;;;;6.00;2.30;;;;;;;12.01;85.31;101686.47;4995524;28;20028;-93
2021/12/31 04:44:13;;;;;;;5.07;2.63;;;;;;;12.09;84.54;101677.78;4995855;28;20026;-93
2021/12/31 04:46:38;;;;;;;5.30;2.77;;;;;;;12.03;85.11;101676.09;4996532;28;20426;-93
2021/12/31 04:49:04;;;;;;;6.83;2.83;;;;;;;12.07;84.91;101674.31;4996196;28;20018;-93
2021/12/31 04:51:29;;;;;;;7.20;2.53;;;;;;;12.05;85.07;101669.97;4995502;28;20054;-93
2021/12/31 04:53:54;;;;;;;3.77;2.50;;;;;;;12.15;84.47;101673.38;4995534;28;20030;-93
2021/12/31 04:56:20;;;;;;;4.43;2.60;;;;;;;12.10;84.82;101666.50;4995883;28;20030;-95
2021/12/31 04:58:45;;;;;;;3.00;2.20;;;;;;;12.04;84.63;101690.81;4995361;28;20022;-93
2021/12/31 05:01:11;;;;;;;3.67;2.50;;;;;;;12.00;84.77;101684.75;4995608;28;20482;-93
2021/12/31 05:03:56;;;;;;;3.60;2.60;;;;;;;12.02;84.71;101684.75;4995133;28;20026;-93
2021/12/31 05:06:22;;;;;;;5.72;2.40;;;;;;;11.97;84.57;101676.97;4996380;28;20022;-93
2021/12/31 05:09:02;;;;;;;4.17;2.60;;;;;;;12.00;84.61;101670.91;4995362;28;20034;-93
2021/12/31 05:11:27;;;;;;;3.80;2.40;;;;;;;11.95;84.79;101675.22;4995125;28;20085;-93
2021/12/31 05:13:52;;;;;;;3.80;2.30;;;;;;;11.97;84.53;101683.88;4995450;28;20026;-93
2021/12/31 05:16:37;;;;;;;4.03;2.40;;;;;;;11.99;84.29;101685.63;4995953;28;20360;-94
2021/12/31 05:19:21;;;;;;;6.47;2.40;;;;;;;12.02;84.54;101679.56;4993596;28;20045;-93
2021/12/31 05:21:46;;;;;;;4.63;2.30;;;;;;;11.96;84.28;101675.22;4991889;28;20102;-93
2021/12/31 05:24:14;;;;;;;4.90;2.60;;;;;;;11.99;84.31;101680.41;4995691;28;20073;-92
2021/12/31 05:26:57;;;;;;;3.95;2.70;;;;;;;11.90;84.34;101663.13;4999765;28;20027;-93
2021/12/31 05:29:22;;;;;;;2.60;2.40;;;;;;;11.96;84.21;101669.16;4997538;28;20033;-92
2021/12/31 05:31:48;;;;;;;4.33;2.40;;;;;;;11.93;84.45;101667.44;4993613;28;20030;-94
2021/12/31 05:34:31;;;;;;;5.77;2.50;;;;;;;11.96;83.91;101659.63;4995350;28;20463;-93
2021/12/31 05:36:57;;;;;;;5.15;2.60;;;;;;;11.93;84.16;101649.22;4995524;28;20022;-93
2021/12/31 05:39:41;;;;;;;5.20;2.67;;;;;;;12.03;83.58;101650.06;4994591;28;20030;-94
2021/12/31 05:42:06;;;;;;;5.07;2.42;;;;;;;11.93;84.17;101648.38;4995402;28;20427;-94
2021/12/31 05:44:32;;;;;;;3.27;2.20;;;;;;;11.89;84.11;101638.00;4994522;28;20059;-93
2021/12/31 05:47:15;;;;;;;5.23;2.43;;;;;;;11.85;84.23;101641.47;4994620;28;20026;-94
2021/12/31 05:49:46;;;;;;;2.85;2.35;;;;;;;11.79;84.24;101635.47;4995240;28;20018;-94
2021/12/31 05:52:11;;;;;;;3.63;2.30;;;;;;;11.76;84.19;101620.75;4995262;28;20038;-93
2021/12/31 05:54:37;;;;;;;5.63;2.40;;;;;;;11.65;84.28;101627.78;4995101;28;20042;-93
2021/12/31 05:57:20;;;;;;;5.63;2.40;;;;;;;11.62;84.24;101627.78;4994608;28;20019;-92
2021/12/31 05:59:46;;;;;;;3.30;2.47;;;;;;;11.59;84.31;101636.47;4994401;28;20113;-94
2021/12/31 06:02:11;;;;;;;2.50;2.23;;;;;;;11.51;84.33;101636.53;4994426;28;20053;-94
2021/12/31 06:04:37;;;;;;;3.20;2.00;;;;;;;11.47;84.03;101637.44;4995038;28;20085;-93
2021/12/31 06:07:25;;;;;;;3.33;2.10;;;;;;;11.49;84.41;101648.66;4944096;28;20026;-93
2021/12/31 06:10:06;;;;;;;7.18;2.70;;;;;;;11.42;84.20;101640.06;4994926;28;20018;-93
2021/12/31 06:12:56;;;;;;;3.75;2.10;;;;;;;11.38;84.25;101640.06;4994422;28;20053;-92
2021/12/31 06:15:42;;;;;;;5.18;2.22;;;;;;;11.31;84.11;101641.88;4994131;28;20527;-94
2021/12/31 06:18:08;;;;;;;2.80;2.10;;;;;;;11.36;84.33;101650.47;4994771;28;20038;-93
2021/12/31 06:20:43;;;;;;;3.15;2.08;;;;;;;11.31;84.33;101648.78;4995887;28;20474;-93
2021/12/31 06:23:08;;;;;;;3.47;2.20;;;;;;;11.22;84.51;101653.16;4993234;28;20045;-93
2021/12/31 06:26:14;;;;;;;3.07;2.30;;;;;;;11.23;84.45;101657.50;4994417;28;20115;-92
2021/12/31 06:28:39;;;;;;;2.45;2.00;;;;;;;11.16;84.52;101663.56;4994398;28;20140;-92
2021/12/31 06:31:24;;;;;;;2.67;1.73;;;;;;;11.12;84.55;101669.66;4994554;28;20026;-93
2021/12/31 06:33:58;;;;;;;2.50;1.95;;;;;;;11.09;84.68;101667.91;4994400;28;20027;-92
2021/12/31 06:36:36;;;;;;;2.88;1.98;;;;;;;11.04;84.78;101655.81;4994434;28;20105;-92
2021/12/31 06:39:22;;;;;;;3.13;1.80;;;;;;;11.03;84.79;101665.38;4994346;28;20023;-94
2021/12/31 06:41:47;;;;;;;2.72;1.92;;;;;;;11.02;84.93;101665.38;5007951;28;20042;-92
2021/12/31 06:46:57;;;;;;;2.60;1.67;;;;;;;10.99;84.83;101667.97;4997873;28;20037;-94
2021/12/31 06:49:22;;;;;;;1.97;1.83;;;;;;;10.99;85.22;101673.19;4998008;28;20018;-93
2021/12/31 06:54:31;;;;;;;3.40;1.90;;;;;;;10.94;84.72;101687.03;4969482;28;20042;-93
2021/12/31 06:56:57;;;;;;;2.80;1.90;;;;;;;10.86;85.05;101681.00;4997866;28;20471;-93
2021/12/31 06:59:23;;;;;;;2.13;1.98;;;;;;;10.85;85.14;101681.88;4997972;28;20097;-93
2021/12/31 07:02:08;;;;;;;2.73;2.10;;;;;;;10.85;84.99;101687.06;4997511;28;20474;-93
2021/12/31 07:04:33;;;;;;;2.07;1.80;;;;;;;10.80;85.16;101674.09;4997927;28;20080;-93
2021/12/31 07:06:59;;;;;;;1.63;1.53;;;;;;;10.80;84.82;101679.28;4997625;28;20030;-93
2021/12/31 07:09:42;;;;;;;2.03;1.90;;;;;;;10.79;85.31;101674.13;4997410;28;20121;-92
2021/12/31 07:12:08;;;;;;;2.00;1.80;;;;;;;10.76;85.18;101682.75;4997867;28;20030;-93
2021/12/31 07:15:22;;;;;;;5.67;2.27;;;;;;;10.79;84.76;101684.50;4997528;28;20028;-93
2021/12/31 07:17:59;;;;;;;4.57;2.10;;;;;;;10.74;85.14;101678.44;4997362;28;20045;-93
2021/12/31 07:20:24;;;;;;;2.85;2.20;;;;;;;10.69;85.12;101675.84;4997540;28;20110;-92
2021/12/31 07:22:50;;;;;;;2.57;2.10;;;;;;;10.72;85.37;101687.97;4994646;28;20140;-94
2021/12/31 07:25:15;;;;;;;1.83;1.63;;;;;;;10.68;84.89;101689.69;4997354;28;20030;-95
2021/12/31 07:31:50;;;;;;;3.13;2.10;;;;;;;10.66;85.32;101700.09;4919256;29;20051;-94
2021/12/31 07:39:31;;;;;;;2.08;1.50;;;;;;;10.55;85.63;101694.06;5019697;23;20049;-85
2021/12/31 07:41:56;;;;;;;2.40;1.58;;;;;;;10.53;85.42;101700.13;5015337;28;20390;-85
2021/12/31 07:44:21;;;;;;;2.53;1.50;;;;;;;10.50;85.48;101701.88;5014426;28;20030;-84
2021/12/31 07:46:46;;;;;;;1.60;1.50;;;;;;;10.49;85.49;101700.13;5015009;28;20392;-85
2021/12/31 07:49:12;;;;;;;2.03;1.60;;;;;;;10.49;85.56;101700.13;5015385;28;20033;-85
2021/12/31 07:51:37;;;;;;;3.40;1.90;;;;;;;10.48;85.29;101703.59;5013709;28;20053;-84
2021/12/31 07:54:03;;;;;;;1.70;1.60;;;;;;;10.46;85.51;101701.88;5013437;28;20025;-84
2021/12/31 07:56:30;;;;;;;1.47;1.37;;;;;;;10.45;85.45;101720.91;5014492;28;20030;-84
2021/12/31 07:58:55;;;;;;;1.48;1.38;;;;;;;10.43;85.27;101712.25;5013828;28;20559;-84
2021/12/31 08:01:20;;;;;;;3.70;1.83;;;;;;;10.40;85.52;101705.34;5014942;28;20026;-84
2021/12/31 08:03:46;;;;;;;3.10;1.87;;;;;;;10.40;85.64;101710.53;5014594;28;20029;-84
2021/12/31 08:06:11;;;;;;;5.17;2.13;;;;;;;10.42;85.67;101710.50;5014513;28;20033;-88
2021/12/31 08:08:36;;;;;;;4.30;2.60;;;;;;;10.45;85.71;101710.53;5015192;28;20018;-82
2021/12/31 08:11:02;;;;;;;2.83;2.10;;;;;;;10.45;85.84;101713.13;5014726;28;20026;-83
2021/12/31 08:13:27;;;;;;;4.93;2.70;;;;;;;10.46;85.79;101720.88;5014146;28;20022;-83
2021/12/31 08:15:56;;;;;;;4.80;2.50;;;;;;;10.45;85.22;101708.78;5014542;28;20355;-86
2021/12/31 08:18:21;;;;;;;4.38;2.70;;;;;;;10.45;85.54;101710.53;5015210;28;20112;-87
2021/12/31 08:20:47;;;;;;;4.20;2.57;;;;;;;10.50;85.72;101707.06;5014627;28;20057;-88
2021/12/31 08:23:12;;;;;;;3.20;2.27;;;;;;;10.46;85.70;101709.66;5015751;28;20112;-93
2021/12/31 08:25:39;;;;;;;2.63;2.30;;;;;;;10.46;85.74;101712.25;5016291;28;20085;-95
2021/12/31 08:28:08;;;;;;;4.78;2.60;;;;;;;10.52;85.23;101709.63;5032108;23;20057;-91
2021/12/31 08:30:45;;;;;;;3.72;2.60;;;;;;;10.53;85.26;101689.75;5015718;28;20025;-88
2021/12/31 08:33:11;;;;;;;4.57;2.50;;;;;;;10.59;84.71;101684.53;5015800;28;20017;-91
2021/12/31 08:35:36;;;;;;;3.10;2.40;;;;;;;10.54;84.92;101691.44;5015780;28;20033;-91
2021/12/31 08:38:03;;;;;;;2.60;2.37;;;;;;;10.55;84.85;101690.59;5014902;28;20101;-86
2021/12/31 08:40:28;;;;;;;3.00;2.38;;;;;;;10.58;84.83;101698.38;5014005;28;20025;-87
2021/12/31 08:42:54;;;;;;;2.97;2.37;;;;;;;10.61;84.83;101694.03;5014373;28;20030;-86
2021/12/31 08:45:20;;;;;;;4.30;2.50;;;;;;;10.68;84.55;101697.50;5013894;28;20466;-86
2021/12/31 08:47:45;;;;;;;4.50;2.60;;;;;;;10.66;84.43;101694.91;5014035;28;20030;-92
2021/12/31 08:50:11;;;;;;;3.40;2.50;;;;;;;10.70;84.12;101693.16;5015594;28;20026;-93
2021/12/31 08:52:36;;;;;;;5.03;2.70;;;;;;;10.77;83.90;101701.81;5015397;28;20026;-88
2021/12/31 08:55:13;;;;;;;3.30;2.27;;;;;;;10.74;84.28;101683.63;5014628;28;20033;-90
2021/12/31 08:57:44;;;;;;;;;;;;;;;10.82;83.95;101687.06;5016074;28;20045;-86
2021/12/31 09:00:10;;;;;;;3.00;2.70;;;;;;;10.82;83.95;101667.16;5019829;28;20007;-92
2021/12/31 09:02:46;;;;;;;5.13;2.63;;;;;;;10.89;83.67;101673.22;5015294;28;20069;-90
2021/12/31 09:05:12;;;;;;;4.68;2.53;;;;;;;10.92;83.32;101682.72;5014870;28;20034;-92
2021/12/31 09:07:37;;;;;;;3.63;2.20;;;;;;;10.92;83.54;101680.13;5014722;28;20189;-88
2021/12/31 09:10:24;;;;;;;3.00;2.50;;;;;;;10.99;83.41;101686.16;5012869;28;20030;-88
2021/12/31 09:12:50;;;;;;;3.03;2.28;;;;;;;11.02;83.35;101675.78;5014277;28;20022;-90
2021/12/31 09:15:16;;;;;;;3.33;2.20;;;;;;;11.03;83.42;101696.53;5014620;28;20048;-82
2021/12/31 09:17:45;;;;;;;3.17;2.60;;;;;;;11.03;83.24;101693.94;5014540;28;20030;-94
2021/12/31 09:20:10;;;;;;;2.63;2.05;;;;;;;11.04;82.60;101687.00;5014853;28;20037;-92
2021/12/31 09:22:57;;;;;;;3.27;2.30;;;;;;;11.08;82.94;101684.41;5015024;28;20442;-91
2021/12/31 09:25:25;;;;;;;5.15;2.53;;;;;;;11.06;83.15;101688.75;5015606;28;20040;-91
2021/12/31 09:28:16;;;;;;;2.88;2.13;;;;;;;11.14;82.98;101709.50;5014440;28;20202;-91
2021/12/31 09:30:41;;;;;;;2.40;2.20;;;;;;;11.14;82.92;101701.72;5015897;28;20061;-81
2021/12/31 09:33:06;;;;;;;2.60;2.10;;;;;;;11.17;83.12;101701.66;5016868;28;20455;-78
2021/12/31 09:35:33;;;;;;;3.83;2.20;;;;;;;11.21;82.94;101707.72;5021102;23;20136;-89
2021/12/31 09:38:09;;;;;;;3.33;2.10;;;;;;;11.20;83.03;101714.66;5014100;28;20053;-92
2021/12/31 09:40:47;;;;;;;4.32;2.05;;;;;;;11.17;82.63;101712.06;5014386;28;20538;-93
2021/12/31 09:43:15;;;;;;;5.15;2.33;;;;;;;11.21;82.87;101712.91;5014361;28;20036;-93
2021/12/31 09:45:43;;;;;;;3.65;2.10;;;;;;;11.20;82.78;101719.84;5014063;28;20026;-92
2021/12/31 09:48:27;;;;;;;4.85;2.30;;;;;;;11.20;82.63;101725.06;5014479;28;20018;-92
2021/12/31 09:50:55;;;;;;;3.38;2.22;;;;;;;11.15;82.69;101724.19;5013557;28;20025;-91
2021/12/31 09:53:33;;;;;;;3.38;2.20;;;;;;;11.20;82.53;101722.44;5014142;28;20022;-91
2021/12/31 09:55:58;;;;;;;2.85;2.20;;;;;;;11.24;83.03;101729.38;5013808;28;20038;-91
2021/12/31 09:58:26;;;;;;;2.37;2.07;;;;;;;11.36;82.83;101743.19;5013826;28;20037;-81
2021/12/31 10:01:10;;;;;;;4.47;2.50;;;;;;;11.28;82.41;101731.06;5030589;28;20093;-95
2021/12/31 10:03:37;;;;;;;3.20;2.50;;;;;;;11.37;82.24;101743.19;5016200;28;20037;-88
2021/12/31 10:06:11;;;;;;;5.43;2.35;;;;;;;11.37;82.49;101721.53;5013129;28;20026;-88
2021/12/31 10:08:49;;;;;;;3.58;2.30;;;;;;;11.36;81.95;101710.25;5013569;28;20040;-88
2021/12/31 10:11:22;;;;;;;2.78;2.10;;;;;;;11.36;82.35;101738.84;5013254;28;20469;-88
2021/12/31 10:14:05;;;;;;;2.33;1.90;;;;;;;11.38;82.36;101736.22;5012834;28;20461;-88
2021/12/31 10:16:37;;;;;;;3.35;2.00;;;;;;;11.37;81.65;101727.59;5013742;28;20470;-88
2021/12/31 10:19:07;;;;;;;2.30;2.10;;;;;;;11.37;81.74;101722.38;5015725;28;20152;-88
2021/12/31 10:21:41;;;;;;;2.58;2.00;;;;;;;11.48;81.93;101703.28;5018300;28;20021;-89
2021/12/31 10:24:24;;;;;;;3.03;2.45;;;;;;;11.36;82.08;101683.41;5017658;28;20388;-89
2021/12/31 10:26:54;;;;;;;3.45;2.13;;;;;;;11.32;82.25;101715.47;5016774;28;20029;-88
2021/12/31 10:29:21;;;;;;;3.40;2.17;;;;;;;11.31;82.38;101706.84;5017990;28;20026;-88
2021/12/31 10:31:51;;;;;;;3.28;2.17;;;;;;;11.35;81.93;101707.69;5017526;28;20022;-89
2021/12/31 10:34:42;;;;;;;2.92;2.00;;;;;;;11.36;82.17;101710.25;5017159;28;20033;-88
2021/12/31 10:37:17;;;;;;;2.08;1.98;;;;;;;11.37;82.16;101714.59;5016658;28;20070;-88
2021/12/31 10:39:44;;;;;;;2.42;2.10;;;;;;;11.39;81.63;101707.66;5016274;28;20033;-89
2021/12/31 10:42:11;;;;;;;4.97;2.45;;;;;;;11.47;81.77;101699.81;5017626;28;20052;-80
2021/12/31 10:44:45;;;;;;;2.80;2.22;;;;;;;11.49;81.51;101710.19;5011829;28;20120;-89
2021/12/31 10:47:37;;;;;;;2.80;2.30;;;;;;;11.44;81.82;101710.22;5014952;28;20883;-83
2021/12/31 10:50:02;;;;;;;4.13;2.22;;;;;;;11.45;82.31;101730.16;5014980;28;20033;-86
2021/12/31 10:52:56;;;;;;;2.93;2.10;;;;;;;11.46;81.90;101725.81;5015706;28;20425;-85
2021/12/31 10:55:44;;;;;;;2.20;2.00;;;;;;;11.47;82.31;101733.63;5014833;28;20041;-86
2021/12/31 10:58:14;;;;;;;3.22;2.30;;;;;;;11.50;81.58;101735.31;5013195;28;20029;-85
2021/12/31 11:00:42;;;;;;;4.70;2.53;;;;;;;11.49;82.16;101734.44;5014494;28;20355;-89
2021/12/31 11:03:25;;;;;;;4.63;2.50;;;;;;;11.54;81.91;101711.06;5030007;28;20033;-92
2021/12/31 11:05:53;;;;;;;4.40;2.30;;;;;;;11.57;81.69;101705.81;5017049;28;20057;-93
2021/12/31 11:08:49;;;;;;;3.92;2.40;;;;;;;11.63;81.51;101702.31;5016256;28;20557;-93
2021/12/31 11:11:30;;;;;;;3.33;2.50;;;;;;;11.62;81.78;101698.88;5017113;28;20470;-92
2021/12/31 11:13:55;;;;;;;3.47;2.40;;;;;;;11.63;81.68;101694.50;5016903;28;20068;-92
2021/12/31 11:16:20;;;;;;;3.23;2.37;;;;;;;11.54;81.59;101685.91;5017269;28;20470;-93
2021/12/31 11:21:55;;;;;;;5.82;2.60;;;;;;;11.63;81.81;101692.78;5022853;23;20054;-93
2021/12/31 11:24:39;;;;;;;4.68;2.50;;;;;;;11.63;81.97;101677.19;5015303;28;20088;-93
2021/12/31 11:27:26;;;;;;;4.72;2.60;;;;;;;11.71;81.51;101683.19;5008765;28;20037;-94
2021/12/31 11:29:52;;;;;;;6.00;2.67;;;;;;;11.73;81.70;101675.38;5015267;28;20041;-92
2021/12/31 11:32:42;;;;;;;4.57;3.00;;;;;;;11.71;81.28;101641.59;5016131;28;20034;-87
2021/12/31 11:36:00;;;;;;;3.78;2.60;;;;;;;11.74;81.64;101641.59;5016284;28;20083;-93
2021/12/31 11:38:26;;;;;;;5.90;2.65;;;;;;;11.76;82.17;101645.91;5001225;28;20037;-92
2021/12/31 11:41:20;;;;;;;4.40;2.37;;;;;;;11.87;81.58;101637.13;5016521;28;20022;-93
2021/12/31 11:44:10;;;;;;;4.85;2.53;;;;;;;11.95;81.64;101624.06;5016040;28;20105;-92
2021/12/31 11:46:41;;;;;;;3.05;2.38;;;;;;;11.98;81.51;101618.88;5016068;28;20022;-92
2021/12/31 11:49:26;;;;;;;3.63;2.40;;;;;;;11.97;81.68;101619.72;5015764;28;20462;-92
2021/12/31 11:52:20;;;;;;;3.38;2.50;;;;;;;12.00;81.31;101629.28;5016415;28;20056;-93
2021/12/31 11:54:45;;;;;;;4.72;2.70;;;;;;;11.96;81.39;101630.13;5005777;28;20037;-92
2021/12/31 11:57:59;;;;;;;3.53;2.43;;;;;;;11.99;81.17;101648.34;5016093;28;20026;-93
2021/12/31 12:00:27;;;;;;;3.88;2.60;;;;;;;11.99;81.17;101653.56;5015956;28;20064;-92
2021/12/31 12:02:52;;;;;;;4.65;2.60;;;;;;;12.02;81.31;101654.38;5018043;28;20021;-93
2021/12/31 12:05:38;;;;;;;4.00;2.60;;;;;;;12.10;81.25;101656.09;5017868;28;20117;-89
2021/12/31 12:08:26;;;;;;;4.28;2.60;;;;;;;12.17;80.78;101647.34;5013489;28;20088;-89
2021/12/31 12:10:51;;;;;;;5.05;2.70;;;;;;;12.31;80.77;101650.69;5011376;28;20034;-92
2021/12/31 12:13:22;;;;;;;3.47;2.57;;;;;;;12.42;80.64;101644.50;5013176;28;20466;-90
2021/12/31 12:16:07;;;;;;;3.45;2.30;;;;;;;12.48;80.64;101632.28;5013733;28;20053;-89
2021/12/31 12:18:53;;;;;;;5.60;2.70;;;;;;;12.63;80.51;101625.16;5013782;28;20034;-90
2021/12/31 12:21:32;;;;;;;3.80;2.60;;;;;;;12.74;80.58;101609.44;5011272;28;20038;-90
2021/12/31 12:24:13;;;;;;;5.55;2.70;;;;;;;12.84;80.16;101618.84;5010877;28;20501;-89
2021/12/31 12:26:38;;;;;;;3.22;2.50;;;;;;;12.97;78.57;101603.91;5014266;28;20026;-90
2021/12/31 12:29:04;;;;;;;3.97;2.50;;;;;;;13.02;79.46;101611.66;5014308;28;20037;-90
2021/12/31 12:31:55;;;;;;;4.67;2.37;;;;;;;13.00;78.82;101621.28;5014311;28;20040;-91
2021/12/31 12:34:45;;;;;;;3.95;2.60;;;;;;;13.00;78.78;101635.16;5013959;28;20092;-91